createdAt,value
2023-07-10T00:01:14.363Z,1.52
2023-07-10T00:03:59.943Z,1.25
2023-07-10T00:06:45.892Z,1.23
2023-07-10T00:09:31.111Z,1.58
2023-07-10T00:12:19.770Z,2.85
2023-07-10T00:15:19.409Z,3.90
2023-07-10T00:18:19.397Z,3.72
2023-07-10T00:21:05.109Z,1.75
2023-07-10T00:23:50.758Z,2.00
2023-07-10T00:26:39.066Z,3.28
2023-07-10T00:29:32.916Z,3.65
2023-07-10T00:32:19.405Z,3.15
2023-07-10T00:35:05.313Z,4.18
2023-07-10T00:38:04.200Z,3.58
2023-07-10T00:40:49.895Z,3.08
2023-07-10T00:43:45.360Z,2.95
2023-07-10T00:46:37.292Z,3.30
2023-07-10T00:49:40.738Z,3.73
2023-07-10T00:52:29.849Z,4.40
2023-07-10T00:55:30.179Z,4.03
2023-07-10T00:58:30.449Z,1.92
2023-07-10T01:01:20.660Z,3.72
2023-07-10T01:04:06.458Z,3.42
2023-07-10T01:06:54.744Z,4.55
2023-07-10T01:09:42.037Z,5.65
2023-07-10T01:12:28.504Z,2.50
2023-07-10T01:15:15.992Z,2.15
2023-07-10T01:18:01.464Z,2.65
2023-07-10T01:20:51.876Z,4.43
2023-07-10T01:23:37.489Z,3.65
2023-07-10T01:26:23.734Z,2.63
2023-07-10T01:29:36.995Z,6.13
2023-07-10T01:32:22.914Z,5.25
2023-07-10T01:35:10.450Z,4.68
2023-07-10T01:37:55.966Z,3.60
2023-07-10T01:40:44.239Z,1.73
2023-07-10T01:43:29.673Z,3.28
2023-07-10T01:46:19.977Z,3.40
2023-07-10T01:49:05.685Z,3.33
2023-07-10T01:51:52.911Z,2.10
2023-07-10T01:54:38.689Z,4.22
2023-07-10T01:57:25.261Z,2.58
2023-07-10T02:00:11.311Z,3.13
2023-07-10T02:02:59.844Z,7.70
2023-07-10T02:05:45.750Z,2.97
2023-07-10T02:08:31.512Z,2.45
2023-07-10T02:11:16.883Z,5.30
2023-07-10T02:14:06.417Z,2.45
2023-07-10T02:16:52.180Z,4.63
2023-07-10T02:19:37.431Z,3.22
2023-07-10T02:22:23.193Z,4.07
2023-07-10T02:25:09.153Z,2.95
2023-07-10T02:27:54.772Z,2.10
2023-07-10T02:30:40.421Z,3.47
2023-07-10T02:33:25.931Z,2.90
2023-07-10T02:36:11.587Z,5.28
2023-07-10T02:38:57.661Z,2.95
2023-07-10T02:41:43.272Z,5.03
2023-07-10T02:44:30.216Z,5.78
2023-07-10T02:47:15.968Z,6.07
2023-07-10T02:50:01.166Z,2.95
2023-07-10T02:52:47.785Z,5.85
2023-07-10T02:59:31.361Z,4.28
2023-07-10T03:02:16.830Z,7.05
2023-07-10T03:05:02.997Z,4.85
2023-07-10T03:07:48.457Z,4.50
2023-07-10T03:10:34.621Z,4.30
2023-07-10T03:13:20.004Z,3.65
2023-07-10T03:16:16.753Z,3.80
2023-07-10T03:19:02.278Z,5.07
2023-07-10T03:21:48.642Z,3.50
2023-07-10T03:24:34.150Z,4.57
2023-07-10T03:27:19.898Z,4.05
2023-07-10T03:30:05.911Z,3.80
2023-07-10T03:32:51.617Z,4.32
2023-07-10T03:35:37.155Z,5.65
2023-07-10T03:38:22.639Z,9.52
2023-07-10T03:41:08.695Z,6.03
2023-07-10T03:43:54.827Z,4.95
2023-07-10T03:46:40.367Z,5.10
2023-07-10T03:49:26.463Z,6.07
2023-07-10T03:52:11.758Z,3.35
2023-07-10T03:54:57.276Z,7.25
2023-07-10T03:57:42.926Z,5.15
2023-07-10T04:00:28.668Z,4.75
2023-07-10T04:03:14.115Z,5.07
2023-07-10T04:06:00.393Z,3.92
2023-07-10T04:08:47.328Z,4.22
2023-07-10T04:11:33.523Z,5.15
2023-07-10T04:14:18.885Z,7.45
2023-07-10T04:17:08.175Z,3.67
2023-07-10T04:19:53.825Z,3.22
2023-07-10T04:22:42.675Z,6.20
2023-07-10T04:25:32.157Z,4.88
2023-07-10T04:28:17.588Z,5.07
2023-07-10T04:31:03.056Z,4.45
2023-07-10T04:33:51.065Z,8.50
2023-07-10T04:36:37.811Z,4.40
2023-07-10T04:39:23.543Z,2.50
2023-07-10T04:42:09.116Z,3.97
2023-07-10T04:44:54.489Z,7.30
2023-07-10T04:47:40.116Z,4.82
2023-07-10T04:50:25.904Z,6.72
2023-07-10T04:53:11.715Z,4.68
2023-07-10T04:55:57.332Z,3.35
2023-07-10T04:58:57.458Z,3.30
2023-07-10T05:01:42.926Z,5.30
2023-07-10T05:04:28.482Z,3.00
2023-07-10T05:07:14.094Z,5.10
2023-07-10T05:09:59.578Z,4.00
2023-07-10T05:12:45.238Z,3.28
2023-07-10T05:15:30.514Z,2.85
2023-07-10T05:18:16.621Z,4.28
2023-07-10T05:21:04.050Z,5.25
2023-07-10T05:23:49.812Z,3.72
2023-07-10T05:26:35.580Z,4.10
2023-07-10T05:29:20.895Z,5.95
2023-07-10T05:32:06.777Z,6.85
2023-07-10T05:34:52.544Z,4.60
2023-07-10T05:37:38.001Z,4.47
2023-07-10T05:40:23.546Z,3.00
2023-07-10T05:43:09.268Z,6.07
2023-07-10T05:45:54.791Z,3.00
2023-07-10T05:48:40.245Z,4.85
2023-07-10T05:51:25.717Z,3.70
2023-07-10T05:54:11.421Z,3.65
2023-07-10T05:56:57.018Z,2.53
2023-07-10T05:59:42.593Z,2.55
2023-07-10T06:02:28.196Z,6.72
2023-07-10T06:05:13.838Z,2.90
2023-07-10T06:07:59.112Z,3.08
2023-07-10T06:10:44.705Z,3.72
2023-07-10T06:13:30.349Z,2.90
2023-07-10T06:16:16.093Z,1.85
2023-07-10T06:19:01.565Z,1.38
2023-07-10T06:21:47.914Z,1.42
2023-07-10T06:24:33.620Z,2.08
2023-07-10T06:27:19.124Z,1.88
2023-07-10T06:30:05.008Z,1.75
2023-07-10T06:32:51.762Z,1.52
2023-07-10T06:35:37.197Z,1.75
2023-07-10T06:38:23.362Z,1.55
2023-07-10T06:41:09.088Z,1.45
2023-07-10T06:43:54.361Z,0.82
2023-07-10T06:46:40.126Z,7.28
2023-07-10T06:49:26.987Z,3.92
2023-07-10T06:52:12.779Z,1.05
2023-07-10T06:54:58.262Z,0.98
2023-07-10T06:57:43.773Z,1.77
2023-07-10T07:00:29.503Z,0.93
2023-07-10T07:03:15.209Z,0.65
2023-07-10T07:06:01.071Z,1.58
2023-07-10T07:08:50.592Z,2.33
2023-07-10T07:11:35.924Z,2.88
2023-07-10T07:14:21.310Z,1.52
2023-07-10T07:17:07.160Z,4.07
2023-07-10T07:19:52.855Z,3.25
2023-07-10T07:22:38.494Z,1.45
2023-07-10T07:25:24.092Z,0.85
2023-07-10T07:28:09.910Z,2.42
2023-07-10T07:31:02.187Z,1.33
2023-07-10T07:33:50.009Z,2.35
2023-07-10T07:36:35.817Z,0.73
2023-07-10T07:39:29.456Z,0.82
2023-07-10T07:42:15.236Z,2.10
2023-07-10T07:45:00.638Z,0.90
2023-07-10T07:47:46.290Z,0.73
2023-07-10T07:50:32.185Z,0.57
2023-07-10T07:53:17.350Z,0.60
2023-07-10T07:56:03.661Z,1.85
2023-07-10T07:58:49.672Z,0.80
2023-07-10T08:01:35.277Z,0.60
2023-07-10T08:04:20.658Z,0.50
2023-07-10T08:07:06.684Z,1.58
2023-07-10T08:09:52.221Z,0.82
2023-07-10T08:12:37.934Z,0.60
2023-07-10T08:15:23.453Z,0.55
2023-07-10T08:18:10.237Z,2.33
2023-07-10T08:21:06.192Z,1.27
2023-07-10T08:23:51.774Z,1.50
2023-07-10T08:26:37.253Z,0.68
2023-07-10T08:29:25.790Z,0.40
2023-07-10T08:32:11.439Z,0.40
2023-07-10T08:34:56.841Z,0.70
2023-07-10T08:37:42.589Z,0.60
2023-07-10T08:40:31.908Z,0.57
2023-07-10T08:43:36.566Z,1.45
2023-07-10T08:46:24.702Z,0.20
2023-07-10T08:49:19.120Z,0.50
2023-07-10T08:52:17.781Z,1.27
2023-07-10T08:55:04.593Z,0.43
2023-07-10T08:57:58.142Z,0.50
2023-07-10T09:00:44.092Z,0.40
2023-07-10T09:03:37.072Z,0.30
2023-07-10T09:06:37.592Z,2.20
2023-07-10T09:09:27.918Z,0.30
2023-07-10T09:12:19.658Z,2.80
2023-07-10T09:15:13.695Z,1.13
2023-07-10T09:18:25.965Z,0.30
2023-07-10T09:21:38.324Z,0.40
2023-07-10T09:24:24.465Z,0.40
2023-07-10T09:27:13.687Z,0.35
2023-07-10T09:29:59.614Z,2.30
2023-07-10T09:32:45.051Z,0.45
2023-07-10T09:35:31.036Z,0.70
2023-07-10T09:38:19.791Z,0.30
2023-07-10T09:41:14.800Z,2.55
2023-07-10T09:44:03.178Z,0.22
2023-07-10T09:46:51.558Z,0.50
2023-07-10T09:49:43.194Z,0.47
2023-07-10T09:52:33.916Z,0.40
2023-07-10T09:55:19.608Z,0.38
2023-07-10T09:58:05.979Z,0.60
2023-07-10T10:00:51.420Z,0.47
2023-07-10T10:03:42.724Z,3.92
2023-07-10T10:06:30.752Z,0.75
2023-07-10T10:09:22.976Z,0.30
2023-07-10T10:12:32.514Z,0.40
2023-07-10T10:15:31.619Z,2.58
2023-07-10T10:18:37.524Z,1.60
2023-07-10T10:21:24.014Z,0.70
2023-07-10T10:24:13.409Z,1.17
2023-07-10T10:27:23.634Z,0.40
2023-07-10T10:30:42.888Z,1.17
2023-07-10T10:33:34.256Z,1.02
2023-07-10T10:36:26.243Z,0.45
2023-07-10T10:39:29.365Z,0.32
2023-07-10T10:42:30.118Z,0.57
2023-07-10T10:45:48.298Z,0.52
2023-07-10T10:48:38.474Z,2.50
2023-07-10T10:51:31.406Z,0.65
2023-07-10T10:54:47.269Z,0.80
2023-07-10T10:57:43.275Z,0.38
2023-07-10T11:00:35.508Z,1.65
2023-07-10T11:03:34.404Z,0.40
2023-07-10T11:06:33.999Z,3.70
2023-07-10T11:09:24.300Z,3.80
2023-07-10T11:12:24.699Z,0.30
2023-07-10T11:15:19.260Z,0.43
2023-07-10T11:18:05.010Z,0.30
2023-07-10T11:20:50.944Z,2.42
2023-07-10T11:23:44.979Z,0.63
2023-07-10T11:26:31.152Z,0.85
2023-07-10T11:29:36.893Z,0.40
2023-07-10T11:32:25.246Z,1.80
2023-07-10T11:35:20.656Z,0.32
2023-07-10T11:38:14.680Z,1.40
2023-07-10T11:41:30.518Z,0.30
2023-07-10T11:44:15.817Z,0.52
2023-07-10T11:47:28.803Z,0.35
2023-07-10T11:50:21.010Z,0.82
2023-07-10T11:53:22.324Z,0.43
2023-07-10T11:56:08.298Z,1.10
2023-07-10T11:58:53.930Z,0.40
2023-07-10T12:01:39.219Z,1.02
2023-07-10T12:04:26.901Z,1.98
2023-07-10T12:07:12.813Z,1.85
2023-07-10T12:09:59.795Z,0.60
2023-07-10T12:12:45.374Z,0.35
2023-07-10T12:15:31.094Z,1.05
2023-07-10T12:18:20.973Z,0.88
2023-07-10T12:21:16.397Z,0.30
2023-07-10T12:24:03.702Z,0.70
2023-07-10T12:29:55.705Z,1.15
2023-07-10T12:32:40.957Z,0.43
2023-07-10T12:35:32.394Z,2.47
2023-07-10T12:38:17.952Z,0.60
2023-07-10T12:41:03.698Z,7.32
2023-07-10T12:43:54.896Z,0.82
2023-07-10T12:46:40.747Z,1.00
2023-07-10T12:49:30.233Z,0.52
2023-07-10T12:52:16.157Z,1.60
2023-07-10T12:55:04.109Z,2.47
2023-07-10T12:57:50.367Z,0.85
2023-07-10T13:00:46.964Z,7.53
2023-07-10T13:03:33.560Z,0.60
2023-07-10T13:06:19.081Z,1.00
2023-07-10T13:09:06.664Z,0.70
2023-07-10T13:11:52.889Z,0.50
2023-07-10T13:14:38.359Z,0.90
2023-07-10T13:17:26.513Z,0.60
2023-07-10T13:20:25.143Z,0.50
2023-07-10T13:23:10.460Z,1.30
2023-07-10T13:25:56.865Z,0.50
2023-07-10T13:28:49.568Z,0.93
2023-07-10T13:31:35.906Z,0.57
2023-07-10T13:34:21.729Z,1.17
2023-07-10T13:37:18.838Z,1.70
2023-07-10T13:40:05.407Z,0.65
2023-07-10T13:42:50.995Z,4.78
2023-07-10T13:45:36.527Z,1.35
2023-07-10T13:48:22.367Z,0.70
2023-07-10T13:51:09.411Z,1.05
2023-07-10T13:53:54.866Z,1.13
2023-07-10T13:56:48.543Z,3.20
2023-07-10T13:59:33.857Z,0.60
2023-07-10T14:02:38.621Z,1.45
2023-07-10T14:05:25.110Z,0.43
2023-07-10T14:08:40.101Z,1.05
2023-07-10T14:11:26.873Z,0.85
2023-07-10T14:14:16.854Z,1.80
2023-07-10T14:17:02.554Z,0.63
2023-07-10T14:19:47.963Z,0.82
2023-07-10T14:22:34.618Z,1.05
2023-07-10T14:25:20.255Z,1.13
2023-07-10T14:28:10.043Z,1.17
2023-07-10T14:30:55.974Z,1.35
2023-07-10T14:33:41.768Z,0.70
2023-07-10T14:36:28.080Z,0.85
2023-07-10T14:39:13.536Z,3.85
2023-07-10T14:41:59.016Z,0.85
2023-07-10T14:44:44.544Z,0.77
2023-07-10T14:47:33.647Z,0.52
2023-07-10T14:50:21.602Z,1.00
2023-07-10T14:53:21.756Z,2.13
2023-07-10T14:56:14.461Z,0.85
2023-07-10T14:59:00.151Z,2.00
2023-07-10T15:01:45.785Z,0.70
2023-07-10T15:04:31.246Z,1.27
2023-07-10T15:07:17.534Z,1.15
2023-07-10T15:10:25.241Z,1.02
2023-07-10T15:13:18.444Z,0.70
2023-07-10T15:16:04.576Z,1.77
2023-07-10T15:18:51.110Z,1.90
2023-07-10T15:21:36.651Z,1.15
2023-07-10T15:24:31.680Z,2.58
2023-07-10T15:27:18.036Z,0.77
2023-07-10T15:30:03.687Z,1.05
2023-07-10T15:32:50.445Z,1.70
2023-07-10T15:35:36.589Z,1.92
2023-07-10T15:38:21.892Z,0.88
2023-07-10T15:41:23.304Z,2.08
2023-07-10T15:44:13.404Z,0.60
2023-07-10T15:46:58.612Z,1.70
2023-07-10T15:49:44.249Z,0.73
2023-07-10T15:52:33.336Z,0.98
2023-07-10T15:55:23.141Z,1.42
2023-07-10T15:58:14.575Z,0.60
2023-07-10T16:01:01.018Z,0.70
2023-07-10T16:03:48.004Z,1.67
2023-07-10T16:06:33.488Z,0.73
2023-07-10T16:09:19.707Z,0.50
2023-07-10T16:12:05.614Z,4.35
2023-07-10T16:14:52.208Z,2.67
2023-07-10T16:17:37.785Z,0.88
2023-07-10T16:20:28.450Z,3.30
2023-07-10T16:23:18.410Z,0.80
2023-07-10T16:26:03.894Z,0.95
2023-07-10T16:28:49.418Z,1.23
2023-07-10T16:31:35.366Z,0.63
2023-07-10T16:34:21.127Z,0.55
2023-07-10T16:37:12.817Z,0.50
2023-07-10T16:39:58.504Z,0.60
2023-07-10T16:42:45.434Z,0.70
2023-07-10T16:45:31.815Z,1.13
2023-07-10T16:48:22.895Z,1.27
2023-07-10T16:51:16.961Z,0.50
2023-07-10T16:54:03.474Z,0.73
2023-07-10T16:56:49.937Z,0.70
2023-07-10T16:59:35.366Z,1.02
2023-07-10T17:02:25.120Z,1.02
2023-07-10T17:05:13.084Z,1.30
2023-07-10T17:08:00.358Z,2.70
2023-07-10T17:10:47.539Z,0.60
2023-07-10T17:13:35.777Z,1.02
2023-07-10T17:16:21.893Z,0.85
2023-07-10T17:19:07.534Z,3.45
2023-07-10T17:21:55.207Z,0.52
2023-07-10T17:24:41.241Z,0.77
2023-07-10T17:27:28.125Z,0.80
2023-07-10T17:30:15.829Z,4.43
2023-07-10T17:33:01.297Z,0.73
2023-07-10T17:35:46.793Z,0.60
2023-07-10T17:38:33.911Z,0.57
2023-07-10T17:41:25.817Z,1.58
2023-07-10T17:44:28.978Z,0.50
2023-07-10T17:47:19.636Z,0.40
2023-07-10T17:50:05.299Z,0.40
2023-07-10T17:52:50.989Z,0.68
2023-07-10T17:55:36.732Z,1.05
2023-07-10T17:58:22.655Z,0.65
2023-07-10T18:01:12.026Z,0.50
2023-07-10T18:03:57.932Z,0.47
2023-07-10T18:06:43.803Z,0.50
2023-07-10T18:09:34.119Z,1.17
2023-07-10T18:12:25.904Z,1.27
2023-07-10T18:15:19.508Z,0.40
2023-07-10T18:18:10.345Z,1.13
2023-07-10T18:20:56.101Z,0.80
2023-07-10T18:23:41.437Z,1.55
2023-07-10T18:26:29.468Z,0.68
2023-07-10T18:29:18.116Z,1.25
2023-07-10T18:32:03.731Z,0.70
2023-07-10T18:34:52.630Z,1.65
2023-07-10T18:37:37.905Z,1.85
2023-07-10T18:40:23.612Z,0.68
2023-07-10T18:43:33.368Z,0.60
2023-07-10T18:46:21.919Z,0.45
2023-07-10T18:49:16.879Z,0.50
2023-07-10T18:52:02.672Z,1.25
2023-07-10T18:54:48.080Z,1.58
2023-07-10T18:57:34.645Z,1.70
2023-07-10T19:00:22.907Z,0.80
2023-07-10T19:03:08.661Z,0.85
2023-07-10T19:05:55.125Z,0.32
2023-07-10T19:08:40.655Z,0.52
2023-07-10T19:11:26.348Z,0.25
2023-07-10T19:14:16.949Z,0.70
2023-07-10T19:17:02.348Z,1.10
2023-07-10T19:19:52.135Z,0.40
2023-07-10T19:22:37.697Z,0.68
2023-07-10T19:25:23.086Z,2.17
2023-07-10T19:28:08.379Z,0.88
2023-07-10T19:30:57.061Z,1.55
2023-07-10T19:33:47.300Z,1.75
2023-07-10T19:36:34.644Z,1.13
2023-07-10T19:39:25.721Z,0.47
2023-07-10T19:42:11.318Z,0.50
2023-07-10T19:44:58.936Z,0.40
2023-07-10T19:47:44.848Z,0.55
2023-07-10T19:50:30.424Z,0.50
2023-07-10T19:53:24.040Z,1.05
2023-07-10T19:56:16.582Z,0.55
2023-07-10T19:59:01.845Z,0.57
2023-07-10T20:01:56.465Z,2.50
2023-07-10T20:04:42.421Z,0.55
2023-07-10T20:07:28.240Z,0.70
2023-07-10T20:10:20.272Z,0.70
2023-07-10T20:13:18.997Z,0.40
2023-07-10T20:16:14.069Z,0.80
2023-07-10T20:18:59.905Z,0.32
2023-07-10T20:21:45.652Z,0.40
2023-07-10T20:24:33.203Z,1.65
2023-07-10T20:27:18.893Z,0.50
2023-07-10T20:30:05.712Z,0.63
2023-07-10T20:32:51.052Z,0.40
2023-07-10T20:35:36.948Z,1.40
2023-07-10T20:38:39.237Z,0.75
2023-07-10T20:41:25.021Z,2.10
2023-07-10T20:44:15.461Z,0.40
2023-07-10T20:47:00.880Z,0.45
2023-07-10T20:49:48.087Z,0.80
2023-07-10T20:52:33.600Z,1.10
2023-07-10T20:55:19.980Z,1.15
2023-07-10T20:58:18.285Z,0.68
2023-07-10T21:01:03.591Z,0.68
2023-07-10T21:03:49.241Z,0.82
2023-07-10T21:06:35.741Z,0.32
2023-07-10T21:09:27.543Z,0.43
2023-07-10T21:12:14.360Z,0.70
2023-07-10T21:14:59.961Z,0.45
2023-07-10T21:17:45.724Z,0.73
2023-07-10T21:20:30.979Z,1.33
2023-07-10T21:23:33.904Z,0.45
2023-07-10T21:26:26.784Z,3.65
2023-07-10T21:29:15.584Z,0.63
2023-07-10T21:32:01.199Z,0.73
2023-07-10T21:34:47.032Z,1.10
2023-07-10T21:37:32.464Z,0.40
2023-07-10T21:40:18.062Z,2.30
2023-07-10T21:43:03.559Z,0.45
2023-07-10T21:45:51.135Z,0.30
2023-07-10T21:48:36.513Z,1.10
2023-07-10T21:51:22.396Z,0.63
2023-07-10T21:54:08.580Z,1.23
2023-07-10T21:56:54.013Z,0.90
2023-07-10T21:59:39.466Z,1.83
2023-07-10T22:02:24.851Z,0.50
2023-07-10T22:05:14.630Z,0.85
2023-07-10T22:08:00.007Z,0.40
2023-07-10T22:10:49.024Z,0.60
2023-07-10T22:13:34.825Z,2.60
2023-07-10T22:16:26.277Z,0.50
2023-07-10T22:19:12.934Z,0.57
2023-07-10T22:21:58.198Z,0.40
2023-07-10T22:24:44.141Z,0.88
2023-07-10T22:27:29.801Z,0.80
2023-07-10T22:30:16.003Z,1.27
2023-07-10T22:33:02.833Z,0.55
2023-07-10T22:35:48.831Z,2.00
2023-07-10T22:38:35.364Z,0.40
2023-07-10T22:41:28.741Z,0.57
2023-07-10T22:44:16.389Z,0.70
2023-07-10T22:47:01.963Z,1.02
2023-07-10T22:49:47.247Z,1.38
2023-07-10T22:52:33.194Z,0.77
2023-07-10T22:55:18.542Z,0.43
2023-07-10T22:58:05.376Z,1.90
2023-07-10T23:00:51.034Z,0.60
2023-07-10T23:03:37.363Z,2.58
2023-07-10T23:06:25.230Z,0.50
2023-07-10T23:09:12.389Z,1.40
2023-07-10T23:11:58.148Z,2.25
2023-07-10T23:14:43.797Z,4.65
2023-07-10T23:17:29.390Z,0.60
2023-07-10T23:20:27.170Z,0.40
2023-07-10T23:23:12.720Z,0.43
2023-07-10T23:25:58.476Z,0.40
2023-07-10T23:28:44.485Z,2.72
2023-07-10T23:31:31.441Z,0.43
2023-07-10T23:34:17.493Z,0.85
2023-07-10T23:37:03.352Z,0.35
2023-07-10T23:39:48.836Z,0.28
2023-07-10T23:42:34.639Z,0.47
2023-07-10T23:45:20.471Z,0.50
2023-07-10T23:48:06.165Z,0.50
2023-07-10T23:50:55.797Z,0.63
2023-07-10T23:53:41.280Z,0.38
2023-07-10T23:56:26.706Z,0.40
2023-07-10T23:59:12.297Z,0.20
